sensor_id;sensor_type;location;lat;lon;timestamp;temperature;humidity
75471;HTU21D;64051;46.320;48.028;2023-04-02T00:07:41;7.46;74.15
75471;HTU21D;64051;46.320;48.028;2023-04-02T00:13:24;7.44;74.12
75471;HTU21D;64051;46.320;48.028;2023-04-02T00:15:55;7.44;74.09
75471;HTU21D;64051;46.320;48.028;2023-04-02T00:18:25;7.46;74.00
75471;HTU21D;64051;46.320;48.028;2023-04-02T00:21:22;7.48;73.77
75471;HTU21D;64051;46.320;48.028;2023-04-02T00:23:49;7.49;73.60
75471;HTU21D;64051;46.320;48.028;2023-04-02T00:26:28;7.50;73.44
75471;HTU21D;64051;46.320;48.028;2023-04-02T00:28:59;7.53;73.27
75471;HTU21D;64051;46.320;48.028;2023-04-02T00:31:25;7.52;73.24
75471;HTU21D;64051;46.320;48.028;2023-04-02T00:33:52;7.50;73.15
75471;HTU21D;64051;46.320;48.028;2023-04-02T00:36:20;7.52;73.00
75471;HTU21D;64051;46.320;48.028;2023-04-02T00:38:47;7.53;72.87
75471;HTU21D;64051;46.320;48.028;2023-04-02T00:41:21;7.56;72.53
75471;HTU21D;64051;46.320;48.028;2023-04-02T00:43:49;7.55;72.44
75471;HTU21D;64051;46.320;48.028;2023-04-02T00:46:18;7.55;72.28
75471;HTU21D;64051;46.320;48.028;2023-04-02T00:49:10;7.57;71.87
75471;HTU21D;64051;46.320;48.028;2023-04-02T00:51:47;7.59;71.68
75471;HTU21D;64051;46.320;48.028;2023-04-02T00:54:18;7.59;71.51
75471;HTU21D;64051;46.320;48.028;2023-04-02T00:56:48;7.60;71.19
75471;HTU21D;64051;46.320;48.028;2023-04-02T00:59:46;7.57;71.19
75471;HTU21D;64051;46.320;48.028;2023-04-02T01:04:55;7.56;70.68
75471;HTU21D;64051;46.320;48.028;2023-04-02T01:07:30;7.55;70.73
75471;HTU21D;64051;46.320;48.028;2023-04-02T01:10:34;7.56;70.49
75471;HTU21D;64051;46.320;48.028;2023-04-02T01:13:30;7.52;70.11
75471;HTU21D;64051;46.320;48.028;2023-04-02T01:16:34;7.49;70.49
75471;HTU21D;64051;46.320;48.028;2023-04-02T01:19:14;7.48;70.44
75471;HTU21D;64051;46.320;48.028;2023-04-02T01:21:59;7.45;70.55
75471;HTU21D;64051;46.320;48.028;2023-04-02T01:24:33;7.43;70.44
75471;HTU21D;64051;46.320;48.028;2023-04-02T01:29:35;7.41;70.42
75471;HTU21D;64051;46.320;48.028;2023-04-02T01:32:09;7.39;70.38
75471;HTU21D;64051;46.320;48.028;2023-04-02T01:34:36;7.38;70.29
75471;HTU21D;64051;46.320;48.028;2023-04-02T01:37:08;7.33;70.44
75471;HTU21D;64051;46.320;48.028;2023-04-02T01:45:11;7.28;70.39
75471;HTU21D;64051;46.320;48.028;2023-04-02T01:47:39;7.26;70.42
75471;HTU21D;64051;46.320;48.028;2023-04-02T01:50:21;7.24;70.48
75471;HTU21D;64051;46.320;48.028;2023-04-02T01:52:51;7.19;70.54
75471;HTU21D;64051;46.320;48.028;2023-04-02T01:55:28;7.18;70.56
75471;HTU21D;64051;46.320;48.028;2023-04-02T01:57:55;7.16;70.56
75471;HTU21D;64051;46.320;48.028;2023-04-02T02:00:22;7.14;70.58
75471;HTU21D;64051;46.320;48.028;2023-04-02T02:02:53;7.12;70.66
75471;HTU21D;64051;46.320;48.028;2023-04-02T02:05:21;7.11;70.64
75471;HTU21D;64051;46.320;48.028;2023-04-02T02:07:50;7.10;70.60
75471;HTU21D;64051;46.320;48.028;2023-04-02T02:10:32;7.10;70.56
75471;HTU21D;64051;46.320;48.028;2023-04-02T02:12:59;7.09;70.53
75471;HTU21D;64051;46.320;48.028;2023-04-02T02:15:26;7.05;70.59
75471;HTU21D;64051;46.320;48.028;2023-04-02T02:17:57;7.03;70.68
75471;HTU21D;64051;46.320;48.028;2023-04-02T02:20:25;7.02;70.60
75471;HTU21D;64051;46.320;48.028;2023-04-02T02:22:52;6.98;70.61
75471;HTU21D;64051;46.320;48.028;2023-04-02T02:25:31;6.94;70.84
75471;HTU21D;64051;46.320;48.028;2023-04-02T02:28:08;6.93;70.78
75471;HTU21D;64051;46.320;48.028;2023-04-02T02:31:00;6.89;70.86
75471;HTU21D;64051;46.320;48.028;2023-04-02T02:33:33;6.85;70.80
75471;HTU21D;64051;46.320;48.028;2023-04-02T02:36:42;6.86;70.74
75471;HTU21D;64051;46.320;48.028;2023-04-02T02:39:03;6.79;70.85
75471;HTU21D;64051;46.320;48.028;2023-04-02T02:41:44;6.76;71.04
75471;HTU21D;64051;46.320;48.028;2023-04-02T02:44:35;6.74;71.06
75471;HTU21D;64051;46.320;48.028;2023-04-02T02:47:09;6.74;71.00
75471;HTU21D;64051;46.320;48.028;2023-04-02T02:49:40;6.70;71.13
75471;HTU21D;64051;46.320;48.028;2023-04-02T02:54:52;6.65;71.32
75471;HTU21D;64051;46.320;48.028;2023-04-02T02:57:25;6.69;71.04
75471;HTU21D;64051;46.320;48.028;2023-04-02T02:59:55;6.65;71.17
75471;HTU21D;64051;46.320;48.028;2023-04-02T03:02:23;6.65;71.22
75471;HTU21D;64051;46.320;48.028;2023-04-02T03:04:51;6.66;71.13
75471;HTU21D;64051;46.320;48.028;2023-04-02T03:07:24;6.65;71.19
75471;HTU21D;64051;46.320;48.028;2023-04-02T03:12:44;6.66;71.31
75471;HTU21D;64051;46.320;48.028;2023-04-02T03:18:13;6.64;71.50
75471;HTU21D;64051;46.320;48.028;2023-04-02T03:20:51;6.64;71.27
75471;HTU21D;64051;46.320;48.028;2023-04-02T03:23:37;6.63;71.60
75471;HTU21D;64051;46.320;48.028;2023-04-02T03:26:22;6.59;71.61
75471;HTU21D;64051;46.320;48.028;2023-04-02T03:29:01;6.58;71.64
75471;HTU21D;64051;46.320;48.028;2023-04-02T03:31:43;6.56;71.69
75471;HTU21D;64051;46.320;48.028;2023-04-02T03:34:19;6.60;71.66
75471;HTU21D;64051;46.320;48.028;2023-04-02T03:39:30;6.60;71.65
75471;HTU21D;64051;46.320;48.028;2023-04-02T03:42:06;6.61;71.70
75471;HTU21D;64051;46.320;48.028;2023-04-02T03:47:28;6.67;71.74
75471;HTU21D;64051;46.320;48.028;2023-04-02T03:50:12;6.65;71.80
75471;HTU21D;64051;46.320;48.028;2023-04-02T03:52:41;6.68;71.68
75471;HTU21D;64051;46.320;48.028;2023-04-02T03:55:18;6.71;71.65
75471;HTU21D;64051;46.320;48.028;2023-04-02T04:03:26;6.78;71.67
75471;HTU21D;64051;46.320;48.028;2023-04-02T04:05:58;6.80;71.66
75471;HTU21D;64051;46.320;48.028;2023-04-02T04:08:35;6.82;71.61
75471;HTU21D;64051;46.320;48.028;2023-04-02T04:11:20;6.85;71.70
75471;HTU21D;64051;46.320;48.028;2023-04-02T04:14:08;6.90;71.55
75471;HTU21D;64051;46.320;48.028;2023-04-02T04:19:51;6.89;71.51
75471;HTU21D;64051;46.320;48.028;2023-04-02T04:22:26;6.93;71.45
75471;HTU21D;64051;46.320;48.028;2023-04-02T04:25:25;6.96;71.48
75471;HTU21D;64051;46.320;48.028;2023-04-02T04:30:38;7.02;71.33
75471;HTU21D;64051;46.320;48.028;2023-04-02T04:33:18;7.04;71.45
75471;HTU21D;64051;46.320;48.028;2023-04-02T04:35:56;7.11;71.33
75471;HTU21D;64051;46.320;48.028;2023-04-02T04:38:37;7.13;71.28
75471;HTU21D;64051;46.320;48.028;2023-04-02T04:41:19;7.15;71.26
75471;HTU21D;64051;46.320;48.028;2023-04-02T04:44:18;7.24;71.10
75471;HTU21D;64051;46.320;48.028;2023-04-02T04:46:57;7.26;70.97
75471;HTU21D;64051;46.320;48.028;2023-04-02T04:52:32;7.33;71.06
75471;HTU21D;64051;46.320;48.028;2023-04-02T04:54:59;7.39;70.89
75471;HTU21D;64051;46.320;48.028;2023-04-02T04:57:34;7.43;70.83
75471;HTU21D;64051;46.320;48.028;2023-04-02T05:00:34;7.48;70.87
75471;HTU21D;64051;46.320;48.028;2023-04-02T05:03:29;7.56;70.67
75471;HTU21D;64051;46.320;48.028;2023-04-02T05:06:15;7.57;70.51
75471;HTU21D;64051;46.320;48.028;2023-04-02T05:08:46;7.61;70.55
75471;HTU21D;64051;46.320;48.028;2023-04-02T05:13:59;7.71;70.51
75471;HTU21D;64051;46.320;48.028;2023-04-02T05:16:35;7.77;70.39
75471;HTU21D;64051;46.320;48.028;2023-04-02T05:19:08;7.82;70.41
75471;HTU21D;64051;46.320;48.028;2023-04-02T05:21:56;7.91;70.13
75471;HTU21D;64051;46.320;48.028;2023-04-02T05:24:42;7.99;70.03
75471;HTU21D;64051;46.320;48.028;2023-04-02T05:33:25;8.27;69.79
75471;HTU21D;64051;46.320;48.028;2023-04-02T05:35:34;8.33;69.55
75471;HTU21D;64051;46.320;48.028;2023-04-02T05:38:04;8.43;69.53
75471;HTU21D;64051;46.320;48.028;2023-04-02T05:40:37;8.49;69.20
75471;HTU21D;64051;46.320;48.028;2023-04-02T05:43:08;8.51;68.99
75471;HTU21D;64051;46.320;48.028;2023-04-02T05:45:40;8.58;68.87
75471;HTU21D;64051;46.320;48.028;2023-04-02T05:48:16;8.63;68.98
75471;HTU21D;64051;46.320;48.028;2023-04-02T05:50:55;8.74;68.39
75471;HTU21D;64051;46.320;48.028;2023-04-02T05:53:27;8.77;68.49
75471;HTU21D;64051;46.320;48.028;2023-04-02T05:56:05;8.80;68.23
75471;HTU21D;64051;46.320;48.028;2023-04-02T05:58:47;8.86;68.39
75471;HTU21D;64051;46.320;48.028;2023-04-02T06:01:39;8.95;68.07
75471;HTU21D;64051;46.320;48.028;2023-04-02T06:04:30;8.98;67.01
75471;HTU21D;64051;46.320;48.028;2023-04-02T06:07:21;9.00;67.43
75471;HTU21D;64051;46.320;48.028;2023-04-02T06:10:09;9.02;67.57
75471;HTU21D;64051;46.320;48.028;2023-04-02T06:12:56;9.14;67.42
75471;HTU21D;64051;46.320;48.028;2023-04-02T06:15:31;9.19;67.42
75471;HTU21D;64051;46.320;48.028;2023-04-02T06:18:21;9.27;67.46
75471;HTU21D;64051;46.320;48.028;2023-04-02T06:20:50;9.37;67.41
75471;HTU21D;64051;46.320;48.028;2023-04-02T06:26:21;9.55;66.32
75471;HTU21D;64051;46.320;48.028;2023-04-02T06:29:25;9.61;66.56
75471;HTU21D;64051;46.320;48.028;2023-04-02T06:31:58;9.69;66.03
75471;HTU21D;64051;46.320;48.028;2023-04-02T06:34:33;9.75;66.33
75471;HTU21D;64051;46.320;48.028;2023-04-02T06:43:19;9.97;65.58
75471;HTU21D;64051;46.320;48.028;2023-04-02T06:46:20;10.05;65.39
75471;HTU21D;64051;46.320;48.028;2023-04-02T06:51:39;10.21;65.21
75471;HTU21D;64051;46.320;48.028;2023-04-02T06:54:12;10.30;64.94
75471;HTU21D;64051;46.320;48.028;2023-04-02T06:56:49;10.38;64.54
75471;HTU21D;64051;46.320;48.028;2023-04-02T06:59:26;10.45;64.48
75471;HTU21D;64051;46.320;48.028;2023-04-02T07:04:43;10.74;64.49
75471;HTU21D;64051;46.320;48.028;2023-04-02T07:07:09;10.82;63.95
75471;HTU21D;64051;46.320;48.028;2023-04-02T07:09:39;10.90;63.93
75471;HTU21D;64051;46.320;48.028;2023-04-02T07:12:12;11.00;63.44
75471;HTU21D;64051;46.320;48.028;2023-04-02T07:14:39;11.05;63.05
75471;HTU21D;64051;46.320;48.028;2023-04-02T07:17:06;11.10;63.58
75471;HTU21D;64051;46.320;48.028;2023-04-02T07:19:34;11.18;62.93
75471;HTU21D;64051;46.320;48.028;2023-04-02T07:22:08;11.25;62.76
75471;HTU21D;64051;46.320;48.028;2023-04-02T07:24:44;11.36;62.35
75471;HTU21D;64051;46.320;48.028;2023-04-02T07:27:12;11.34;61.86
75471;HTU21D;64051;46.320;48.028;2023-04-02T07:29:39;11.42;61.90
75471;HTU21D;64051;46.320;48.028;2023-04-02T07:32:13;11.46;61.67
75471;HTU21D;64051;46.320;48.028;2023-04-02T07:34:45;11.52;60.50
75471;HTU21D;64051;46.320;48.028;2023-04-02T07:37:13;11.54;60.96
75471;HTU21D;64051;46.320;48.028;2023-04-02T07:39:39;11.61;60.91
75471;HTU21D;64051;46.320;48.028;2023-04-02T07:42:07;11.68;60.67
75471;HTU21D;64051;46.320;48.028;2023-04-02T07:44:33;11.74;60.51
75471;HTU21D;64051;46.320;48.028;2023-04-02T07:46:59;11.81;60.65
75471;HTU21D;64051;46.320;48.028;2023-04-02T07:49:25;11.92;60.28
75471;HTU21D;64051;46.320;48.028;2023-04-02T07:51:54;12.03;60.21
75471;HTU21D;64051;46.320;48.028;2023-04-02T07:54:23;12.13;59.86
75471;HTU21D;64051;46.320;48.028;2023-04-02T07:56:52;12.21;59.74
75471;HTU21D;64051;46.320;48.028;2023-04-02T07:59:18;12.29;59.53
75471;HTU21D;64051;46.320;48.028;2023-04-02T08:01:47;12.41;59.44
75471;HTU21D;64051;46.320;48.028;2023-04-02T08:04:19;12.48;58.27
75471;HTU21D;64051;46.320;48.028;2023-04-02T08:06:49;12.51;58.92
75471;HTU21D;64051;46.320;48.028;2023-04-02T08:09:15;12.64;58.81
75471;HTU21D;64051;46.320;48.028;2023-04-02T08:11:42;12.76;58.37
75471;HTU21D;64051;46.320;48.028;2023-04-02T08:14:09;12.80;58.08
75471;HTU21D;64051;46.320;48.028;2023-04-02T08:16:52;12.94;57.34
75471;HTU21D;64051;46.320;48.028;2023-04-02T08:19:22;12.96;57.11
75471;HTU21D;64051;46.320;48.028;2023-04-02T08:21:48;12.97;57.12
75471;HTU21D;64051;46.320;48.028;2023-04-02T08:24:19;13.05;57.10
75471;HTU21D;64051;46.320;48.028;2023-04-02T08:26:49;13.14;57.17
75471;HTU21D;64051;46.320;48.028;2023-04-02T08:29:16;13.25;57.08
75471;HTU21D;64051;46.320;48.028;2023-04-02T08:31:41;13.36;56.44
75471;HTU21D;64051;46.320;48.028;2023-04-02T08:34:10;13.46;56.58
75471;HTU21D;64051;46.320;48.028;2023-04-02T08:36:38;13.63;56.70
75471;HTU21D;64051;46.320;48.028;2023-04-02T08:39:08;13.82;56.11
75471;HTU21D;64051;46.320;48.028;2023-04-02T08:42:30;13.93;55.35
75471;HTU21D;64051;46.320;48.028;2023-04-02T08:45:02;14.05;55.07
75471;HTU21D;64051;46.320;48.028;2023-04-02T08:47:38;14.19;54.83
75471;HTU21D;64051;46.320;48.028;2023-04-02T08:50:27;14.35;54.31
75471;HTU21D;64051;46.320;48.028;2023-04-02T08:52:53;14.49;54.78
75471;HTU21D;64051;46.320;48.028;2023-04-02T09:00:48;14.89;53.24
75471;HTU21D;64051;46.320;48.028;2023-04-02T09:03:28;14.93;51.29
75471;HTU21D;64051;46.320;48.028;2023-04-02T09:05:58;14.83;51.14
75471;HTU21D;64051;46.320;48.028;2023-04-02T09:08:26;14.84;50.92
75471;HTU21D;64051;46.320;48.028;2023-04-02T09:11:07;14.91;50.21
75471;HTU21D;64051;46.320;48.028;2023-04-02T09:13:41;14.98;50.07
75471;HTU21D;64051;46.320;48.028;2023-04-02T09:16:16;15.02;49.02
75471;HTU21D;64051;46.320;48.028;2023-04-02T09:18:46;15.09;48.67
75471;HTU21D;64051;46.320;48.028;2023-04-02T09:24:11;15.29;48.15
75471;HTU21D;64051;46.320;48.028;2023-04-02T09:26:38;15.41;47.31
75471;HTU21D;64051;46.320;48.028;2023-04-02T09:32:33;15.62;43.51
75471;HTU21D;64051;46.320;48.028;2023-04-02T09:37:38;15.69;46.05
75471;HTU21D;64051;46.320;48.028;2023-04-02T09:40:27;15.77;46.15
75471;HTU21D;64051;46.320;48.028;2023-04-02T09:43:12;15.87;45.51
75471;HTU21D;64051;46.320;48.028;2023-04-02T09:46:16;15.96;46.00
75471;HTU21D;64051;46.320;48.028;2023-04-02T09:48:54;16.13;44.36
75471;HTU21D;64051;46.320;48.028;2023-04-02T09:51:33;16.27;45.80
75471;HTU21D;64051;46.320;48.028;2023-04-02T09:54:07;16.37;45.54
75471;HTU21D;64051;46.320;48.028;2023-04-02T09:56:38;16.47;45.07
75471;HTU21D;64051;46.320;48.028;2023-04-02T09:59:18;16.54;44.89
75471;HTU21D;64051;46.320;48.028;2023-04-02T10:04:39;16.70;43.32
75471;HTU21D;64051;46.320;48.028;2023-04-02T10:13:16;16.81;43.70
75471;HTU21D;64051;46.320;48.028;2023-04-02T10:15:50;16.90;44.05
75471;HTU21D;64051;46.320;48.028;2023-04-02T10:21:40;17.02;44.08
75471;HTU21D;64051;46.320;48.028;2023-04-02T10:24:15;16.98;43.52
75471;HTU21D;64051;46.320;48.028;2023-04-02T10:29:51;16.81;43.03
75471;HTU21D;64051;46.320;48.028;2023-04-02T10:40:36;16.80;42.53
75471;HTU21D;64051;46.320;48.028;2023-04-02T10:48:43;17.23;43.70
75471;HTU21D;64051;46.320;48.028;2023-04-02T10:51:42;17.43;43.47
75471;HTU21D;64051;46.320;48.028;2023-04-02T10:57:17;17.53;42.71
75471;HTU21D;64051;46.320;48.028;2023-04-02T10:59:56;17.58;42.26
75471;HTU21D;64051;46.320;48.028;2023-04-02T11:02:34;17.66;43.50
75471;HTU21D;64051;46.320;48.028;2023-04-02T11:05:22;17.69;42.53
75471;HTU21D;64051;46.320;48.028;2023-04-02T11:08:26;17.72;42.61
75471;HTU21D;64051;46.320;48.028;2023-04-02T11:11:12;17.75;42.93
75471;HTU21D;64051;46.320;48.028;2023-04-02T11:16:20;17.90;43.23
75471;HTU21D;64051;46.320;48.028;2023-04-02T11:24:35;18.14;41.72
75471;HTU21D;64051;46.320;48.028;2023-04-02T11:29:49;18.26;42.62
75471;HTU21D;64051;46.320;48.028;2023-04-02T11:32:32;18.35;43.03
75471;HTU21D;64051;46.320;48.028;2023-04-02T11:35:02;18.44;42.82
75471;HTU21D;64051;46.320;48.028;2023-04-02T11:37:42;18.52;43.02
75471;HTU21D;64051;46.320;48.028;2023-04-02T11:42:44;18.72;43.00
75471;HTU21D;64051;46.320;48.028;2023-04-02T11:50:48;18.69;42.61
75471;HTU21D;64051;46.320;48.028;2023-04-02T11:55:45;18.70;42.21
75471;HTU21D;64051;46.320;48.028;2023-04-02T12:04:19;18.62;41.98
75471;HTU21D;64051;46.320;48.028;2023-04-02T12:09:43;18.49;42.69
75471;HTU21D;64051;46.320;48.028;2023-04-02T12:12:38;18.48;42.74
75471;HTU21D;64051;46.320;48.028;2023-04-02T12:18:20;18.40;41.99
75471;HTU21D;64051;46.320;48.028;2023-04-02T12:20:54;18.32;42.64
75471;HTU21D;64051;46.320;48.028;2023-04-02T12:23:32;18.32;42.81
75471;HTU21D;64051;46.320;48.028;2023-04-02T12:26:03;18.32;42.61
75471;HTU21D;64051;46.320;48.028;2023-04-02T12:28:34;18.24;42.58
75471;HTU21D;64051;46.320;48.028;2023-04-02T12:31:12;18.18;43.03
75471;HTU21D;64051;46.320;48.028;2023-04-02T12:33:55;18.22;43.23
75471;HTU21D;64051;46.320;48.028;2023-04-02T12:36:25;18.23;42.94
75471;HTU21D;64051;46.320;48.028;2023-04-02T12:38:54;18.18;43.00
75471;HTU21D;64051;46.320;48.028;2023-04-02T12:41:27;18.15;43.24
75471;HTU21D;64051;46.320;48.028;2023-04-02T12:44:16;18.15;42.51
75471;HTU21D;64051;46.320;48.028;2023-04-02T12:46:49;18.10;43.22
75471;HTU21D;64051;46.320;48.028;2023-04-02T12:49:37;18.07;43.15
75471;HTU21D;64051;46.320;48.028;2023-04-02T12:52:17;18.03;43.58
75471;HTU21D;64051;46.320;48.028;2023-04-02T13:05:53;18.12;44.16
75471;HTU21D;64051;46.320;48.028;2023-04-02T13:08:41;18.13;44.09
75471;HTU21D;64051;46.320;48.028;2023-04-02T13:11:07;18.10;44.34
75471;HTU21D;64051;46.320;48.028;2023-04-02T13:13:38;18.08;44.35
75471;HTU21D;64051;46.320;48.028;2023-04-02T13:16:28;18.06;44.45
75471;HTU21D;64051;46.320;48.028;2023-04-02T13:19:09;18.05;44.45
75471;HTU21D;64051;46.320;48.028;2023-04-02T13:21:35;18.06;44.78
75471;HTU21D;64051;46.320;48.028;2023-04-02T13:24:24;18.08;44.64
75471;HTU21D;64051;46.320;48.028;2023-04-02T13:26:54;18.10;44.78
75471;HTU21D;64051;46.320;48.028;2023-04-02T13:29:25;18.07;44.70
75471;HTU21D;64051;46.320;48.028;2023-04-02T13:31:59;18.04;44.64
75471;HTU21D;64051;46.320;48.028;2023-04-02T13:34:30;17.97;44.57
75471;HTU21D;64051;46.320;48.028;2023-04-02T13:36:56;17.91;44.73
75471;HTU21D;64051;46.320;48.028;2023-04-02T13:39:25;17.89;44.73
75471;HTU21D;64051;46.320;48.028;2023-04-02T13:41:55;17.84;44.88
75471;HTU21D;64051;46.320;48.028;2023-04-02T13:44:24;17.80;44.69
75471;HTU21D;64051;46.320;48.028;2023-04-02T13:46:54;17.75;44.85
75471;HTU21D;64051;46.320;48.028;2023-04-02T13:49:24;17.70;44.88
75471;HTU21D;64051;46.320;48.028;2023-04-02T13:51:53;17.67;44.92
75471;HTU21D;64051;46.320;48.028;2023-04-02T13:57:19;17.56;44.98
75471;HTU21D;64051;46.320;48.028;2023-04-02T13:59:45;17.49;45.16
75471;HTU21D;64051;46.320;48.028;2023-04-02T14:02:17;17.46;45.19
75471;HTU21D;64051;46.320;48.028;2023-04-02T14:04:59;17.46;45.27
75471;HTU21D;64051;46.320;48.028;2023-04-02T14:07:39;17.43;45.41
75471;HTU21D;64051;46.320;48.028;2023-04-02T14:10:38;17.39;45.27
75471;HTU21D;64051;46.320;48.028;2023-04-02T14:13:22;17.34;45.51
75471;HTU21D;64051;46.320;48.028;2023-04-02T14:24:32;17.20;45.25
75471;HTU21D;64051;46.320;48.028;2023-04-02T14:29:46;17.08;45.54
75471;HTU21D;64051;46.320;48.028;2023-04-02T14:41:21;16.87;45.93
75471;HTU21D;64051;46.320;48.028;2023-04-02T14:43:57;16.85;45.91
75471;HTU21D;64051;46.320;48.028;2023-04-02T14:46:28;16.78;46.08
75471;HTU21D;64051;46.320;48.028;2023-04-02T14:49:20;16.75;46.05
75471;HTU21D;64051;46.320;48.028;2023-04-02T14:51:52;16.70;46.31
75471;HTU21D;64051;46.320;48.028;2023-04-02T14:57:40;16.59;46.64
75471;HTU21D;64051;46.320;48.028;2023-04-02T15:00:38;16.55;46.79
75471;HTU21D;64051;46.320;48.028;2023-04-02T15:03:17;16.46;47.02
75471;HTU21D;64051;46.320;48.028;2023-04-02T15:06:14;16.42;47.17
75471;HTU21D;64051;46.320;48.028;2023-04-02T15:11:37;16.34;47.42
75471;HTU21D;64051;46.320;48.028;2023-04-02T15:14:15;16.29;47.58
75471;HTU21D;64051;46.320;48.028;2023-04-02T15:16:45;16.26;47.74
75471;HTU21D;64051;46.320;48.028;2023-04-02T15:19:19;16.22;47.86
75471;HTU21D;64051;46.320;48.028;2023-04-02T15:30:40;16.07;48.37
75471;HTU21D;64051;46.320;48.028;2023-04-02T15:44:22;15.98;48.81
75471;HTU21D;64051;46.320;48.028;2023-04-02T15:49:45;15.90;53.96
75471;HTU21D;64051;46.320;48.028;2023-04-02T15:52:35;15.77;51.59
75471;HTU21D;64051;46.320;48.028;2023-04-02T15:55:25;15.59;52.68
75471;HTU21D;64051;46.320;48.028;2023-04-02T16:04:18;14.89;54.78
75471;HTU21D;64051;46.320;48.028;2023-04-02T16:12:38;14.19;55.66
75471;HTU21D;64051;46.320;48.028;2023-04-02T16:15:35;13.99;56.97
75471;HTU21D;64051;46.320;48.028;2023-04-02T16:21:30;13.62;56.94
75471;HTU21D;64051;46.320;48.028;2023-04-02T16:24:00;13.49;57.15
75471;HTU21D;64051;46.320;48.028;2023-04-02T16:26:51;13.36;57.49
75471;HTU21D;64051;46.320;48.028;2023-04-02T16:35:16;12.99;58.34
75471;HTU21D;64051;46.320;48.028;2023-04-02T16:48:28;12.48;59.15
75471;HTU21D;64051;46.320;48.028;2023-04-02T16:56:53;12.25;60.57
75471;HTU21D;64051;46.320;48.028;2023-04-02T17:05:26;12.03;60.87
75471;HTU21D;64051;46.320;48.028;2023-04-02T17:08:10;11.94;60.36
75471;HTU21D;64051;46.320;48.028;2023-04-02T17:10:50;11.85;60.89
75471;HTU21D;64051;46.320;48.028;2023-04-02T17:13:40;11.77;61.26
75471;HTU21D;64051;46.320;48.028;2023-04-02T17:18:56;11.62;61.50
75471;HTU21D;64051;46.320;48.028;2023-04-02T17:21:30;11.56;61.54
75471;HTU21D;64051;46.320;48.028;2023-04-02T17:26:59;11.44;62.26
75471;HTU21D;64051;46.320;48.028;2023-04-02T17:29:52;11.37;62.14
75471;HTU21D;64051;46.320;48.028;2023-04-02T17:32:36;11.31;62.34
75471;HTU21D;64051;46.320;48.028;2023-04-02T17:35:39;11.23;62.71
75471;HTU21D;64051;46.320;48.028;2023-04-02T17:47:22;10.93;63.28
75471;HTU21D;64051;46.320;48.028;2023-04-02T17:53:22;10.78;63.73
75471;HTU21D;64051;46.320;48.028;2023-04-02T18:04:40;10.58;63.88
75471;HTU21D;64051;46.320;48.028;2023-04-02T18:19:14;10.49;64.93
75471;HTU21D;64051;46.320;48.028;2023-04-02T18:36:20;10.50;65.24
75471;HTU21D;64051;46.320;48.028;2023-04-02T18:38:51;10.52;65.72
75471;HTU21D;64051;46.320;48.028;2023-04-02T18:41:45;10.52;66.14
75471;HTU21D;64051;46.320;48.028;2023-04-02T18:47:33;10.53;65.98
75471;HTU21D;64051;46.320;48.028;2023-04-02T18:52:57;10.52;65.39
75471;HTU21D;64051;46.320;48.028;2023-04-02T18:55:47;10.54;66.04
75471;HTU21D;64051;46.320;48.028;2023-04-02T19:01:15;10.53;65.91
75471;HTU21D;64051;46.320;48.028;2023-04-02T19:03:51;10.52;65.88
75471;HTU21D;64051;46.320;48.028;2023-04-02T19:06:30;10.54;65.85
75471;HTU21D;64051;46.320;48.028;2023-04-02T19:09:25;10.54;66.52
75471;HTU21D;64051;46.320;48.028;2023-04-02T19:12:17;10.53;66.05
75471;HTU21D;64051;46.320;48.028;2023-04-02T19:14:45;10.52;65.70
75471;HTU21D;64051;46.320;48.028;2023-04-02T19:20:27;10.52;67.05
75471;HTU21D;64051;46.320;48.028;2023-04-02T19:26:09;10.51;67.00
75471;HTU21D;64051;46.320;48.028;2023-04-02T19:34:36;10.49;66.75
75471;HTU21D;64051;46.320;48.028;2023-04-02T19:37:29;10.45;66.60
75471;HTU21D;64051;46.320;48.028;2023-04-02T19:42:55;10.43;66.09
75471;HTU21D;64051;46.320;48.028;2023-04-02T19:45:44;10.42;66.44
75471;HTU21D;64051;46.320;48.028;2023-04-02T19:48:25;10.41;66.58
75471;HTU21D;64051;46.320;48.028;2023-04-02T19:50:52;10.40;66.43
75471;HTU21D;64051;46.320;48.028;2023-04-02T19:53:22;10.39;66.70
75471;HTU21D;64051;46.320;48.028;2023-04-02T19:55:52;10.40;66.63
75471;HTU21D;64051;46.320;48.028;2023-04-02T19:58:28;10.43;66.72
75471;HTU21D;64051;46.320;48.028;2023-04-02T20:01:01;10.41;66.72
75471;HTU21D;64051;46.320;48.028;2023-04-02T20:03:40;10.41;66.97
75471;HTU21D;64051;46.320;48.028;2023-04-02T20:06:07;10.40;66.85
75471;HTU21D;64051;46.320;48.028;2023-04-02T20:08:35;10.40;66.82
75471;HTU21D;64051;46.320;48.028;2023-04-02T20:11:05;10.38;66.89
75471;HTU21D;64051;46.320;48.028;2023-04-02T20:13:37;10.38;66.92
75471;HTU21D;64051;46.320;48.028;2023-04-02T20:16:07;10.35;67.05
75471;HTU21D;64051;46.320;48.028;2023-04-02T20:18:34;10.35;67.14
75471;HTU21D;64051;46.320;48.028;2023-04-02T20:21:06;10.36;67.46
75471;HTU21D;64051;46.320;48.028;2023-04-02T20:23:33;10.33;67.37
75471;HTU21D;64051;46.320;48.028;2023-04-02T20:26:04;10.31;67.49
75471;HTU21D;64051;46.320;48.028;2023-04-02T20:28:37;10.27;67.70
75471;HTU21D;64051;46.320;48.028;2023-04-02T20:31:12;10.23;67.68
75471;HTU21D;64051;46.320;48.028;2023-04-02T20:33:41;10.18;67.46
75471;HTU21D;64051;46.320;48.028;2023-04-02T20:36:11;10.13;67.47
75471;HTU21D;64051;46.320;48.028;2023-04-02T20:38:37;10.07;67.46
75471;HTU21D;64051;46.320;48.028;2023-04-02T20:41:04;10.04;67.50
75471;HTU21D;64051;46.320;48.028;2023-04-02T20:43:34;9.96;67.59
75471;HTU21D;64051;46.320;48.028;2023-04-02T20:46:02;9.93;67.65
75471;HTU21D;64051;46.320;48.028;2023-04-02T20:48:33;9.86;67.82
75471;HTU21D;64051;46.320;48.028;2023-04-02T20:51:05;9.81;67.82
75471;HTU21D;64051;46.320;48.028;2023-04-02T20:53:33;9.77;68.00
75471;HTU21D;64051;46.320;48.028;2023-04-02T20:56:11;9.75;68.28
75471;HTU21D;64051;46.320;48.028;2023-04-02T20:58:38;9.68;68.12
75471;HTU21D;64051;46.320;48.028;2023-04-02T21:01:24;9.63;68.74
75471;HTU21D;64051;46.320;48.028;2023-04-02T21:03:59;9.59;68.33
75471;HTU21D;64051;46.320;48.028;2023-04-02T21:06:36;9.55;68.41
75471;HTU21D;64051;46.320;48.028;2023-04-02T21:09:07;9.52;68.42
75471;HTU21D;64051;46.320;48.028;2023-04-02T21:11:35;9.48;68.34
75471;HTU21D;64051;46.320;48.028;2023-04-02T21:14:02;9.46;68.43
75471;HTU21D;64051;46.320;48.028;2023-04-02T21:16:29;9.44;68.49
75471;HTU21D;64051;46.320;48.028;2023-04-02T21:19:01;9.42;68.74
75471;HTU21D;64051;46.320;48.028;2023-04-02T21:21:30;9.40;68.73
75471;HTU21D;64051;46.320;48.028;2023-04-02T21:24:01;9.40;68.82
75471;HTU21D;64051;46.320;48.028;2023-04-02T21:26:31;9.39;68.82
75471;HTU21D;64051;46.320;48.028;2023-04-02T21:28:57;9.38;68.91
75471;HTU21D;64051;46.320;48.028;2023-04-02T21:31:25;9.37;68.92
75471;HTU21D;64051;46.320;48.028;2023-04-02T21:33:53;9.37;68.87
75471;HTU21D;64051;46.320;48.028;2023-04-02T21:36:21;9.34;68.90